Terminal Aerodrome Forecast
Issued by NWS

Home | Current Version | Previous Version | Graphics & Text | Print | Product List | Glossary On
Versions: 1 2 3 4 5 6 7 8 9 10 11 12 13 14 15 16 17 18
719
FTUS43 KTOP 152335
TAFMHK
TAF
KMHK 152335Z 1600/1624 07006KT 4SM -RA BR OVC007
     FM160800 04006KT 2SM RA BR OVC003
     FM161700 34006KT 3SM BR VCSH OVC003=

USA.gov is the U.S. government's official web portal to all federal, state and local government web resources and services.